Templeton, IN (47986)

8:22 PM EDT on July 30, 2016 (GMT -0400)
Oxford | | Change Station

Elev 732 ft 40.52 °N, 87.24 °W | Updated 1 minute ago

Partly Cloudy
Partly Cloudy
77.2 °F
Feels Like 79 °F
N
0.0
Wind Variable Wind from North

Today
High -- | Low -- °F
--% Chance of Precip.
Yesterday
High -- | Low -- °F
Precip. -- in
Pressure 29.92 in
Visibility 10.0 miles
Clouds Few 3600 ft
Heat Index 79 °F
Dew Point 68 °F
Humidity 74%
Rainfall 0.00 in
Snow Depth Not available.
6:44 AM 9:05 PM
Waning Crescent, 10% visible
METAR KLAF 302354Z 29005KT 10SM FEW036 26/20 A2993 RMK AO2 SLP130 60012 T02610200 10283 20228 58003
Pressure 29.92 in
Visibility 10.0 miles
Clouds Few 3600 ft
Heat Index 79 °F
Dew Point 68 °F
Humidity 74%
Rainfall 0.00 in
Snow Depth Not available.
6:44 AM 9:05 PM
Waning Crescent, 10% visible
METAR KLAF 302354Z 29005KT 10SM FEW036 26/20 A2993 RMK AO2 SLP130 60012 T02610200 10283 20228 58003

10-Day Weather Forecast

Almanac

Astronomy

Jul. 30, 2016 Rise Set
Actual Time
Civil Twilight
Nautical Twilight
Astronomical Twilight
Moon
Length of Visible Light
Length of Day
Tomorrow will be .
, % of the Moon is Illuminated

Today's Extremes

State Highs State Lows

Community

WunderPhotos

Upload Photos

1,928,682 photos uploaded!

WunderBlog® & News

Nearby

Air Quality

  Air Quality AQ Index Pollutant
Not available.

Snow Depth

Station Depth Elevation

Earthquake Activity

City Distance Mag. Time & Date
Minimum magnitude displayed is 2.5.

Coastal Water Temperatures

Place Temperature

Stations

Nearby Weather Stations

Station Location Temp. Windchill Dew Point Humidity Wind Precip. Elev Updated Type
                   

Watches & Warnings

There are currently no watches in effect.